Información del aeropuerto EBLG

Información de pista
Pista 05L Longitud 7677 ft Anchura 148 ft
Elevación 637 ft Umbral 0 ft Rumbo 45
Pista 23R Longitud 7677 ft Anchura 148 ft
Elevación 585 ft Umbral 0 ft Rumbo 225
Pista 05R Longitud 10784 ft Anchura 148 ft
Elevación 652 ft Umbral 774 ft Rumbo 45
Pista 23L Longitud 10784 ft Anchura 148 ft
Elevación 603 ft Umbral 0 ft Rumbo 225
Frecuencias del aeropuerto
Tipo A/D Nombre APP Frecuencia 119.275 MHZ
Tipo ATIS Nombre ATIS Frecuencia 126.25 MHZ
Tipo CLD Nombre CLNC DEL Frecuencia 121.8 MHZ
Tipo GND Nombre GND Frecuencia 121.925 MHZ
Tipo TWR Nombre TWR Frecuencia 129.25 MHZ
Radioayudas del aeropuerto
Tipo NDB Nombre Liege Frecuencia 349 KHZ
Tipo VOR-DME Nombre Liege Frecuencia 115450 KHZ
Tipo NDB Nombre Liege Frecuencia 290 KHZ
Información meteorológica del aeropuerto y NOTAM
ADDS - METARS form results

(0448 UTC 22 September 2021)
Data provider http://aviationweather.gov/metar/data/
 
METAR text: EBLG 220420Z 17003KT 140V270 CAVOK 09/07 Q1030 NOSIG
Conditions at: EBLG (BIERSET/LIEGE (C, BE) observed 0420 UTC 22 September 2021
Temperature: 9.0°C (48°F)
Dewpoint: 7.0°C (45°F) [RH = 87%]
Pressure (altimeter): 30.41 inches Hg (1030.0 mb)
Winds: from the S (170 degrees) at 3 MPH (3 knots; 1.5 m/s)
Visibility: 6 or more miles (10+ km)
Ceiling: ceiling and visibility are OK
Clouds: unknown
Weather: no significant weather observed at this time

METAR text: EBLG 220350Z 19003KT 140V260 CAVOK 09/07 Q1030 NOSIG
Conditions at: EBLG (BIERSET/LIEGE (C, BE) observed 0350 UTC 22 September 2021
Temperature: 9.0°C (48°F)
Dewpoint: 7.0°C (45°F) [RH = 87%]
Pressure (altimeter): 30.41 inches Hg (1030.0 mb)
Winds: from the S (190 degrees) at 3 MPH (3 knots; 1.5 m/s)
Visibility: 6 or more miles (10+ km)
Ceiling: ceiling and visibility are OK
Clouds: unknown
Weather: no significant weather observed at this time

Forecast for: EBLG (BIERSET/LIEGE (C, BE)
Text: TAF EBLG 212301Z 2200/2306 VRB02KT CAVOK
Forecast period: 0000 UTC 22 September 2021 to 0600 UTC 23 September 2021
Forecast type: FROM: standard forecast or significant change
Winds: variable direction winds at 2 MPH (2 knots; 1.0 m/s)
Visibility: 6 or more miles (10+ km)
Ceiling: unknown
Clouds: missing
Weather: NSW  (no significant weather)
Text: PROB30
Forecast period: 0400 to 0600 UTC 22 September 2021
Forecast type: TEMPORARY: The following changes expected for less than half the time period
Visibility: 2.49 miles (4.01 km)
Ceiling: unknown
Clouds: missing
Weather: MIFG BR  (shallow fog, mist)